createdAt,value
2022-10-17T00:00:08.156Z,101505.06
2022-10-17T00:02:35.520Z,101507.72
2022-10-17T00:05:03.019Z,101512.31
2022-10-17T00:07:31.114Z,101514.88
2022-10-17T00:09:58.808Z,101508.63
2022-10-17T00:12:26.292Z,101511.28
2022-10-17T00:14:53.653Z,101512.06
2022-10-17T00:17:21.258Z,101511.13
2022-10-17T00:19:48.867Z,101519.66
2022-10-17T00:22:16.325Z,101507.25
2022-10-17T00:24:43.699Z,101494.84
2022-10-17T00:27:11.048Z,101493.91
2022-10-17T00:29:38.787Z,101498.63
2022-10-17T00:32:06.378Z,101508.56
2022-10-17T00:34:34.110Z,101511.22
2022-10-17T00:37:01.463Z,101510.59
2022-10-17T00:39:28.944Z,101506.25
2022-10-17T00:41:56.306Z,101496.50
2022-10-17T00:44:29.569Z,101488.38
2022-10-17T00:46:58.351Z,101495.56
2022-10-17T00:49:29.309Z,101500.84
2022-10-17T00:52:00.631Z,101506.38
2022-10-17T00:54:32.550Z,101505.59
2022-10-17T00:57:00.645Z,101514.50
2022-10-17T00:59:28.834Z,101515.22
2022-10-17T01:02:06.996Z,101516.75
2022-10-17T01:04:38.314Z,101521.19
2022-10-17T01:07:05.683Z,101519.63
2022-10-17T01:09:33.283Z,101507.22
2022-10-17T01:12:19.008Z,101503.78
2022-10-17T01:14:58.610Z,101498.69
2022-10-17T01:17:40.370Z,101493.47
2022-10-17T01:20:49.857Z,101499.63
2022-10-17T01:23:42.044Z,101495.94
2022-10-17T01:26:54.406Z,101491.50
2022-10-17T01:29:43.619Z,101491.50
2022-10-17T01:32:17.096Z,101483.84
2022-10-17T01:34:56.094Z,101484.84
2022-10-17T01:37:33.682Z,101489.59
2022-10-17T01:40:21.919Z,101479.00
2022-10-17T01:42:57.301Z,101479.78
2022-10-17T01:45:24.913Z,101477.88
2022-10-17T01:47:53.221Z,101472.56
2022-10-17T01:50:24.909Z,101476.06
2022-10-17T01:52:56.827Z,101472.38
2022-10-17T01:55:28.871Z,101476.63
2022-10-17T01:58:04.396Z,101474.94
2022-10-17T02:00:31.637Z,101473.97
2022-10-17T02:03:10.877Z,101479.38
2022-10-17T02:05:41.369Z,101472.28
2022-10-17T02:08:09.328Z,101468.88
2022-10-17T02:10:42.314Z,101468.78
2022-10-17T02:13:20.480Z,101467.94
2022-10-17T02:15:55.638Z,101477.50
2022-10-17T02:18:36.207Z,101469.34
2022-10-17T02:21:08.848Z,101472.66
2022-10-17T02:23:43.286Z,101467.38
2022-10-17T02:26:24.086Z,101470.13
2022-10-17T02:28:57.642Z,101472.84
2022-10-17T02:31:36.457Z,101473.69
2022-10-17T02:34:10.174Z,101475.50
2022-10-17T02:36:42.217Z,101469.34
2022-10-17T02:39:10.176Z,101470.31
2022-10-17T02:41:39.970Z,101464.06
2022-10-17T02:44:08.981Z,101459.53
2022-10-17T02:46:37.781Z,101462.06
2022-10-17T02:49:14.144Z,101458.47
2022-10-17T02:51:57.833Z,101456.88
2022-10-17T02:54:38.389Z,101452.44
2022-10-17T02:57:43.453Z,101458.47
2022-10-17T03:00:13.719Z,101462.25
2022-10-17T03:02:42.594Z,101462.47
2022-10-17T03:05:11.510Z,101460.44
2022-10-17T03:07:39.111Z,101459.59
2022-10-17T03:11:09.840Z,101462.34
2022-10-17T03:13:39.722Z,101457.16
2022-10-17T03:16:07.812Z,101453.38
2022-10-17T03:18:35.287Z,101454.97
2022-10-17T03:21:02.651Z,101457.72
2022-10-17T03:23:30.125Z,101459.53
2022-10-17T03:25:57.488Z,101461.22
2022-10-17T03:28:24.990Z,101461.22
2022-10-17T03:30:52.459Z,101459.44
2022-10-17T03:33:19.946Z,101456.78
2022-10-17T03:35:47.563Z,101450.53
2022-10-17T03:38:15.143Z,101447.88
2022-10-17T03:44:49.828Z,101444.47
2022-10-17T03:47:17.301Z,101448.94
2022-10-17T03:49:45.034Z,101454.13
2022-10-17T03:52:13.227Z,101454.03
2022-10-17T03:54:41.200Z,101453.28
2022-10-17T03:57:08.550Z,101443.72
2022-10-17T03:59:36.032Z,101448.09
2022-10-17T04:02:03.513Z,101439.25
2022-10-17T04:04:30.929Z,101439.25
2022-10-17T04:06:58.356Z,101441.91
2022-10-17T04:09:25.959Z,101447.31
2022-10-17T04:11:53.333Z,101441.28
2022-10-17T04:14:20.802Z,101433.22
2022-10-17T04:17:50.926Z,101431.41
2022-10-17T04:20:18.431Z,101423.56
2022-10-17T04:22:46.008Z,101423.47
2022-10-17T04:25:13.851Z,101421.66
2022-10-17T04:27:41.247Z,101429.91
2022-10-17T04:30:08.813Z,101426.41
2022-10-17T04:32:38.342Z,101427.25
2022-10-17T04:35:06.172Z,101421.97
2022-10-17T04:37:33.649Z,101426.28
2022-10-17T04:40:01.042Z,101426.28
2022-10-17T04:42:29.633Z,101426.41
2022-10-17T04:44:57.420Z,101424.59
2022-10-17T04:47:25.023Z,101426.50
2022-10-17T04:49:52.623Z,101430.84
2022-10-17T04:52:20.229Z,101428.31
2022-10-17T04:54:47.709Z,101433.63
2022-10-17T04:57:15.310Z,101438.91
2022-10-17T04:59:42.793Z,101427.66
2022-10-17T05:02:10.267Z,101432.28
2022-10-17T05:04:37.771Z,101426.88
2022-10-17T05:07:05.350Z,101422.81
2022-10-17T05:09:32.722Z,101419.31
2022-10-17T05:12:00.086Z,101427.16
2022-10-17T05:14:27.680Z,101429.81
2022-10-17T05:16:56.887Z,101430.56
2022-10-17T05:19:24.567Z,101424.44
2022-10-17T05:22:38.340Z,101427.94
2022-10-17T05:25:09.327Z,101432.44
2022-10-17T05:27:36.817Z,101435.19
2022-10-17T05:30:05.012Z,101431.72
2022-10-17T05:32:32.643Z,101431.88
2022-10-17T05:35:00.214Z,101427.72
2022-10-17T05:37:34.142Z,101433.22
2022-10-17T05:40:01.817Z,101428.84
2022-10-17T05:42:29.955Z,101424.59
2022-10-17T05:44:57.608Z,101422.69
2022-10-17T05:47:29.086Z,101421.84
2022-10-17T05:49:56.643Z,101421.00
2022-10-17T05:52:24.357Z,101429.78
2022-10-17T05:54:56.084Z,101426.31
2022-10-17T05:57:33.709Z,101430.75
2022-10-17T06:00:01.078Z,101433.41
2022-10-17T06:02:28.942Z,101442.19
2022-10-17T06:04:56.627Z,101442.38
2022-10-17T06:07:24.365Z,101438.03
2022-10-17T06:09:51.851Z,101441.63
2022-10-17T06:12:19.433Z,101443.31
2022-10-17T06:14:46.915Z,101455.59
2022-10-17T06:17:16.375Z,101464.50
2022-10-17T06:19:45.204Z,101466.28
2022-10-17T06:22:12.958Z,101473.13
2022-10-17T06:24:42.733Z,101469.69
2022-10-17T06:27:11.949Z,101479.16
2022-10-17T06:29:39.988Z,101474.91
2022-10-17T06:32:09.918Z,101473.97
2022-10-17T06:34:40.455Z,101483.53
2022-10-17T06:37:07.935Z,101476.59
2022-10-17T06:39:36.016Z,101482.56
2022-10-17T06:42:04.369Z,101491.38
2022-10-17T06:44:32.121Z,101491.47
2022-10-17T06:47:00.508Z,101482.56
2022-10-17T06:49:27.991Z,101489.47
2022-10-17T06:51:55.945Z,101491.94
2022-10-17T06:54:23.425Z,101492.03
2022-10-17T06:56:50.788Z,101498.19
2022-10-17T06:59:18.267Z,101490.06
2022-10-17T07:01:47.134Z,101489.59
2022-10-17T07:04:16.351Z,101493.75
2022-10-17T07:06:44.074Z,101487.44
2022-10-17T07:09:11.675Z,101485.47
2022-10-17T07:11:40.352Z,101498.59
2022-10-17T07:14:07.715Z,101486.94
2022-10-17T07:16:35.442Z,101494.59
2022-10-17T07:19:02.929Z,101502.03
2022-10-17T07:21:35.252Z,101513.28
2022-10-17T07:24:07.602Z,101510.34
2022-10-17T07:26:35.452Z,101512.94
2022-10-17T07:29:03.329Z,101515.28
2022-10-17T07:31:30.773Z,101520.22
2022-10-17T07:34:00.321Z,101519.06
2022-10-17T07:36:27.775Z,101520.47
2022-10-17T07:38:55.282Z,101515.84
2022-10-17T07:41:22.750Z,101507.50
2022-10-17T07:43:50.336Z,101509.97
2022-10-17T07:46:17.821Z,101514.78
2022-10-17T07:48:45.532Z,101507.38
2022-10-17T07:51:13.261Z,101512.41
2022-10-17T07:53:42.747Z,101512.75
2022-10-17T07:56:14.104Z,101526.47
2022-10-17T07:58:41.719Z,101520.75
2022-10-17T08:01:15.638Z,101522.06
2022-10-17T08:03:44.721Z,101523.47
2022-10-17T08:06:12.667Z,101525.81
2022-10-17T08:08:41.882Z,101514.06
2022-10-17T08:11:16.232Z,101519.84
2022-10-17T08:13:43.886Z,101513.94
2022-10-17T08:16:12.914Z,101512.69
2022-10-17T08:18:41.593Z,101514.59
2022-10-17T08:21:24.267Z,101511.97
2022-10-17T08:23:51.805Z,101518.66
2022-10-17T08:26:20.250Z,101519.25
2022-10-17T08:28:48.359Z,101515.09
2022-10-17T08:31:20.619Z,101514.56
2022-10-17T08:33:50.005Z,101516.50
2022-10-17T08:36:19.775Z,101512.63
2022-10-17T08:38:51.810Z,101512.34
2022-10-17T08:41:45.229Z,101505.84
2022-10-17T08:44:34.546Z,101508.41
2022-10-17T08:47:04.451Z,101507.66
2022-10-17T08:49:31.894Z,101510.72
2022-10-17T08:52:04.778Z,101503.06
2022-10-17T08:54:42.104Z,101497.19
2022-10-17T08:57:17.262Z,101500.16
2022-10-17T08:59:46.310Z,101497.88
2022-10-17T09:02:29.308Z,101504.34
2022-10-17T09:09:04.081Z,101508.09
2022-10-17T09:11:44.274Z,101516.66
2022-10-17T09:14:37.076Z,101508.53
2022-10-17T09:17:29.089Z,101506.50
2022-10-17T09:20:20.887Z,101515.47
2022-10-17T09:22:59.049Z,101514.03
2022-10-17T09:25:27.477Z,101517.22
2022-10-17T09:28:10.927Z,101514.72
2022-10-17T09:30:45.196Z,101516.66
2022-10-17T09:33:28.767Z,101507.84
2022-10-17T09:36:08.892Z,101499.84
2022-10-17T09:38:42.625Z,101497.91
2022-10-17T09:41:43.125Z,101496.38
2022-10-17T09:44:17.656Z,101497.69
2022-10-17T09:47:34.119Z,101502.28
2022-10-17T09:50:03.023Z,101499.84
2022-10-17T09:52:48.141Z,101505.03
2022-10-17T09:55:37.706Z,101497.97
2022-10-17T09:58:07.017Z,101500.75
2022-10-17T10:00:41.250Z,101487.09
2022-10-17T10:03:29.199Z,101502.38
2022-10-17T10:06:05.700Z,101501.94
2022-10-17T10:08:36.875Z,101493.28
2022-10-17T10:11:13.480Z,101492.25
2022-10-17T10:13:41.691Z,101499.22
2022-10-17T10:16:15.527Z,101495.53
2022-10-17T10:18:47.482Z,101498.88
2022-10-17T10:21:20.319Z,101501.72
2022-10-17T10:24:14.728Z,101496.56
2022-10-17T10:26:48.095Z,101486.31
2022-10-17T10:29:21.763Z,101497.47
2022-10-17T10:31:51.652Z,101496.22
2022-10-17T10:34:26.948Z,101498.47
2022-10-17T10:37:06.894Z,101504.72
2022-10-17T10:39:36.627Z,101503.59
2022-10-17T10:42:06.444Z,101496.72
2022-10-17T10:44:34.050Z,101506.22
2022-10-17T10:47:24.285Z,101496.78
2022-10-17T10:49:53.698Z,101500.19
2022-10-17T10:52:32.326Z,101509.19
2022-10-17T10:55:05.344Z,101494.50
2022-10-17T10:57:35.288Z,101480.81
2022-10-17T11:00:15.422Z,101484.31
2022-10-17T11:02:52.908Z,101488.22
2022-10-17T11:05:26.861Z,101483.78
2022-10-17T11:08:00.411Z,101489.38
2022-10-17T11:11:00.214Z,101485.16
2022-10-17T11:13:32.103Z,101499.44
2022-10-17T11:16:04.897Z,101476.19
2022-10-17T11:18:44.931Z,101480.56
2022-10-17T11:21:24.133Z,101469.53
2022-10-17T11:24:09.249Z,101473.53
2022-10-17T11:26:46.709Z,101462.56
2022-10-17T11:29:13.883Z,101462.19
2022-10-17T11:31:52.828Z,101462.16
2022-10-17T11:34:25.147Z,101467.47
2022-10-17T11:36:56.958Z,101460.78
2022-10-17T11:39:32.556Z,101456.72
2022-10-17T11:42:07.232Z,101453.22
2022-10-17T11:44:39.362Z,101459.81
2022-10-17T11:47:17.716Z,101464.69
2022-10-17T11:49:50.870Z,101466.41
2022-10-17T11:52:55.378Z,101466.56
2022-10-17T11:55:26.407Z,101458.63
2022-10-17T11:58:18.216Z,101450.34
2022-10-17T12:01:08.431Z,101450.66
2022-10-17T12:04:01.720Z,101458.22
2022-10-17T12:06:57.354Z,101453.16
2022-10-17T12:09:27.315Z,101455.81
2022-10-17T12:12:02.720Z,101466.19
2022-10-17T12:14:40.420Z,101463.22
2022-10-17T12:17:28.378Z,101463.75
2022-10-17T12:20:21.503Z,101452.31
2022-10-17T12:23:17.857Z,101458.44
2022-10-17T12:26:03.423Z,101467.69
2022-10-17T12:28:37.725Z,101446.75
2022-10-17T12:31:23.012Z,101462.59
2022-10-17T12:33:55.198Z,101455.28
2022-10-17T12:36:22.208Z,101453.00
2022-10-17T12:39:13.402Z,101445.63
2022-10-17T12:41:40.619Z,101439.91
2022-10-17T12:44:13.388Z,101440.28
2022-10-17T12:47:00.425Z,101447.41
2022-10-17T12:49:46.108Z,101450.03
2022-10-17T12:52:23.564Z,101443.34
2022-10-17T12:55:26.522Z,101454.88
2022-10-17T12:57:57.059Z,101448.78
2022-10-17T13:00:28.553Z,101444.16
2022-10-17T13:03:03.671Z,101437.47
2022-10-17T13:05:34.069Z,101431.72
2022-10-17T13:08:04.357Z,101428.13
2022-10-17T13:10:36.181Z,101425.19
2022-10-17T13:13:15.887Z,101421.63
2022-10-17T13:15:50.042Z,101435.06
2022-10-17T13:18:22.828Z,101419.00
2022-10-17T13:21:06.079Z,101424.31
2022-10-17T13:23:37.656Z,101430.97
2022-10-17T13:26:10.245Z,101429.88
2022-10-17T13:28:39.492Z,101442.13
2022-10-17T13:31:07.756Z,101427.59
2022-10-17T13:33:40.568Z,101428.41
2022-10-17T13:36:15.872Z,101427.06
2022-10-17T13:38:43.234Z,101433.16
2022-10-17T13:44:02.546Z,101429.44
2022-10-17T13:46:37.915Z,101423.72
2022-10-17T13:49:23.255Z,101422.56
2022-10-17T13:51:54.200Z,101422.75
2022-10-17T13:54:36.379Z,101434.78
2022-10-17T13:57:04.753Z,101430.97
2022-10-17T13:59:39.611Z,101430.81
2022-10-17T14:02:14.183Z,101431.81
2022-10-17T14:05:11.667Z,101433.34
2022-10-17T14:08:05.532Z,101440.66
2022-10-17T14:10:27.588Z,101439.09
2022-10-17T14:12:55.202Z,101438.31
2022-10-17T14:15:25.876Z,101431.34
2022-10-17T14:18:06.673Z,101433.09
2022-10-17T14:23:38.940Z,101443.88
2022-10-17T14:26:21.494Z,101451.28
2022-10-17T14:29:04.125Z,101440.75
2022-10-17T14:31:35.321Z,101442.91
2022-10-17T14:34:04.746Z,101450.28
2022-10-17T14:36:44.082Z,101445.41
2022-10-17T14:39:20.193Z,101454.28
2022-10-17T14:41:47.959Z,101441.75
2022-10-17T14:44:35.569Z,101461.72
2022-10-17T14:47:30.329Z,101456.81
2022-10-17T14:50:02.186Z,101457.03
2022-10-17T14:52:31.271Z,101444.31
2022-10-17T14:55:00.328Z,101445.81
2022-10-17T14:57:33.183Z,101455.09
2022-10-17T15:00:00.299Z,101451.69
2022-10-17T15:02:29.620Z,101448.59
2022-10-17T15:04:57.243Z,101452.81
2022-10-17T15:07:24.376Z,101451.19
2022-10-17T15:09:52.808Z,101457.97
2022-10-17T15:12:25.294Z,101455.44
2022-10-17T15:14:53.195Z,101462.00
2022-10-17T15:17:31.283Z,101457.94
2022-10-17T15:19:59.021Z,101453.41
2022-10-17T15:22:26.505Z,101453.88
2022-10-17T15:24:53.721Z,101451.88
2022-10-17T15:27:22.972Z,101457.59
2022-10-17T15:29:50.527Z,101457.22
2022-10-17T15:32:17.715Z,101462.44
2022-10-17T15:34:44.828Z,101463.97
2022-10-17T15:37:17.948Z,101454.38
2022-10-17T15:39:46.768Z,101454.19
2022-10-17T15:42:13.902Z,101467.59
2022-10-17T15:44:44.065Z,101462.47
2022-10-17T15:47:22.563Z,101472.19
2022-10-17T15:49:49.851Z,101471.66
2022-10-17T15:52:17.090Z,101471.13
2022-10-17T15:54:44.219Z,101461.84
2022-10-17T15:57:18.427Z,101469.31
2022-10-17T15:59:47.099Z,101462.56
2022-10-17T16:02:15.332Z,101477.34
2022-10-17T16:04:42.927Z,101469.22
2022-10-17T16:07:10.409Z,101462.72
2022-10-17T16:09:37.570Z,101465.59
2022-10-17T16:12:06.416Z,101459.34
2022-10-17T16:14:34.293Z,101466.38
2022-10-17T16:17:01.628Z,101466.47
2022-10-17T16:19:30.154Z,101473.97
2022-10-17T16:22:00.773Z,101466.69
2022-10-17T16:24:30.836Z,101472.13
2022-10-17T16:26:57.973Z,101476.28
2022-10-17T16:29:25.110Z,101478.97
2022-10-17T16:31:52.180Z,101482.97
2022-10-17T16:34:19.399Z,101484.03
2022-10-17T16:36:46.496Z,101481.94
2022-10-17T16:39:13.652Z,101482.00
2022-10-17T16:41:41.030Z,101478.94
2022-10-17T16:44:10.349Z,101474.78
2022-10-17T16:46:37.980Z,101479.72
2022-10-17T16:49:06.256Z,101475.19
2022-10-17T16:51:35.715Z,101478.53
2022-10-17T16:54:04.458Z,101466.56
2022-10-17T16:56:32.838Z,101478.28
2022-10-17T16:59:00.834Z,101488.91
2022-10-17T17:01:31.465Z,101487.97
2022-10-17T17:03:58.860Z,101485.84
2022-10-17T17:06:28.447Z,101487.88
2022-10-17T17:08:56.259Z,101490.84
2022-10-17T17:11:25.503Z,101488.19
2022-10-17T17:13:55.313Z,101481.19
2022-10-17T17:16:23.845Z,101473.00
2022-10-17T17:18:56.240Z,101482.91
2022-10-17T17:21:23.773Z,101477.53
2022-10-17T17:23:51.698Z,101485.72
2022-10-17T17:26:20.532Z,101492.06
2022-10-17T17:28:48.022Z,101492.50
2022-10-17T17:31:17.897Z,101495.63
2022-10-17T17:33:46.691Z,101494.38
2022-10-17T17:36:19.924Z,101503.25
2022-10-17T17:38:47.904Z,101502.97
2022-10-17T17:41:17.595Z,101494.53
2022-10-17T17:43:46.006Z,101490.28
2022-10-17T17:46:14.517Z,101486.63
2022-10-17T17:48:42.595Z,101492.00
2022-10-17T17:51:11.201Z,101498.63
2022-10-17T17:53:38.698Z,101500.34
2022-10-17T17:56:10.770Z,101495.94
2022-10-17T17:58:37.914Z,101505.81
2022-10-17T18:01:15.192Z,101514.56
2022-10-17T18:03:42.397Z,101514.56
2022-10-17T18:06:09.568Z,101517.38
2022-10-17T18:08:36.935Z,101521.47
2022-10-17T18:11:04.388Z,101521.03
2022-10-17T18:13:31.692Z,101523.28
2022-10-17T18:16:00.576Z,101515.06
2022-10-17T18:18:29.352Z,101520.41
2022-10-17T18:20:56.775Z,101519.84
2022-10-17T18:23:24.116Z,101522.50
2022-10-17T18:25:55.694Z,101518.81
2022-10-17T18:28:23.196Z,101522.47
2022-10-17T18:30:50.700Z,101532.19
2022-10-17T18:33:17.918Z,101528.09
2022-10-17T18:35:45.103Z,101534.00
2022-10-17T18:38:12.280Z,101532.31
2022-10-17T18:40:39.459Z,101543.28
2022-10-17T18:43:06.627Z,101535.66
2022-10-17T18:45:33.777Z,101544.09
2022-10-17T18:48:00.906Z,101541.56
2022-10-17T18:50:28.103Z,101541.25
2022-10-17T18:52:55.257Z,101538.81
2022-10-17T18:55:22.376Z,101544.47
2022-10-17T18:57:49.861Z,101541.06
2022-10-17T19:00:17.485Z,101553.53
2022-10-17T19:02:44.894Z,101552.09
2022-10-17T19:05:12.004Z,101560.97
2022-10-17T19:07:39.153Z,101562.56
2022-10-17T19:10:06.562Z,101556.63
2022-10-17T19:12:33.716Z,101567.56
2022-10-17T19:15:00.942Z,101562.88
2022-10-17T19:17:28.318Z,101568.22
2022-10-17T19:19:55.876Z,101565.06
2022-10-17T19:22:23.026Z,101575.19
2022-10-17T19:24:50.123Z,101584.06
2022-10-17T19:27:17.522Z,101575.19
2022-10-17T19:29:44.657Z,101578.66
2022-10-17T19:32:15.768Z,101575.13
2022-10-17T19:34:45.295Z,101576.38
2022-10-17T19:37:12.411Z,101577.31
2022-10-17T19:39:39.572Z,101572.94
2022-10-17T19:42:07.148Z,101573.94
2022-10-17T19:44:34.888Z,101583.78
2022-10-17T19:47:02.018Z,101586.00
2022-10-17T19:49:29.260Z,101583.88
2022-10-17T19:51:56.375Z,101583.16
2022-10-17T19:54:23.485Z,101590.59
2022-10-17T19:56:50.640Z,101591.34
2022-10-17T19:59:18.143Z,101586.13
2022-10-17T20:01:45.776Z,101593.44
2022-10-17T20:04:13.336Z,101590.00
2022-10-17T20:06:40.872Z,101591.13
2022-10-17T20:09:11.140Z,101596.72
2022-10-17T20:11:41.138Z,101603.88
2022-10-17T20:14:08.436Z,101610.22
2022-10-17T20:16:36.504Z,101606.94
2022-10-17T20:19:06.673Z,101610.56
2022-10-17T20:21:39.409Z,101608.13
2022-10-17T20:24:10.921Z,101614.53
2022-10-17T20:26:39.460Z,101619.03
2022-10-17T20:29:11.606Z,101613.47
2022-10-17T20:31:40.037Z,101618.47
2022-10-17T20:34:07.124Z,101615.44
2022-10-17T20:36:37.033Z,101616.78
2022-10-17T20:39:05.256Z,101613.63
2022-10-17T20:41:32.540Z,101615.09
2022-10-17T20:43:59.661Z,101619.59
2022-10-17T20:46:48.775Z,101623.47
2022-10-17T20:49:18.788Z,101629.75
2022-10-17T20:51:46.371Z,101619.34
2022-10-17T20:54:13.484Z,101628.78
2022-10-17T20:56:40.615Z,101620.06
2022-10-17T20:59:12.630Z,101626.72
2022-10-17T21:01:39.901Z,101629.88
2022-10-17T21:04:33.145Z,101637.28
2022-10-17T21:06:54.213Z,101630.25
2022-10-17T21:09:21.703Z,101628.78
2022-10-17T21:11:52.453Z,101637.63
2022-10-17T21:14:19.788Z,101637.78
2022-10-17T21:16:47.027Z,101635.94
2022-10-17T21:19:14.896Z,101642.00
2022-10-17T21:21:44.248Z,101643.72
2022-10-17T21:24:17.366Z,101644.31
2022-10-17T21:26:45.649Z,101644.19
2022-10-17T21:29:13.435Z,101647.22
2022-10-17T21:31:43.217Z,101643.94
2022-10-17T21:34:18.451Z,101647.56
2022-10-17T21:36:45.619Z,101652.41
2022-10-17T21:39:14.315Z,101647.78
2022-10-17T21:41:41.902Z,101650.59
2022-10-17T21:44:14.519Z,101654.56
2022-10-17T21:46:42.186Z,101658.63
2022-10-17T21:49:12.030Z,101660.34
2022-10-17T21:51:40.061Z,101660.59
2022-10-17T21:54:07.890Z,101659.22
2022-10-17T21:56:36.281Z,101663.91
2022-10-17T21:59:04.489Z,101664.91
2022-10-17T22:01:37.881Z,101670.22
2022-10-17T22:04:07.292Z,101670.34
2022-10-17T22:06:40.164Z,101669.00
2022-10-17T22:09:20.308Z,101671.19
2022-10-17T22:11:49.415Z,101682.06
2022-10-17T22:14:18.839Z,101685.16
2022-10-17T22:16:46.840Z,101676.91
2022-10-17T22:19:16.479Z,101685.25
2022-10-17T22:21:43.612Z,101690.06
2022-10-17T22:24:12.671Z,101697.31
2022-10-17T22:26:40.279Z,101695.28
2022-10-17T22:29:08.723Z,101692.81
2022-10-17T22:31:36.530Z,101687.72
2022-10-17T22:34:05.514Z,101691.97
2022-10-17T22:36:33.336Z,101686.66
2022-10-17T22:39:00.588Z,101689.66
2022-10-17T22:41:27.847Z,101694.34
2022-10-17T22:43:55.013Z,101687.31
2022-10-17T22:46:22.210Z,101691.94
2022-10-17T22:48:49.422Z,101692.00
2022-10-17T22:51:16.692Z,101693.00
2022-10-17T22:53:43.868Z,101690.78
2022-10-17T22:56:14.568Z,101684.59
2022-10-17T22:58:42.021Z,101688.13
2022-10-17T23:01:12.528Z,101684.59
2022-10-17T23:03:39.735Z,101688.31
2022-10-17T23:06:06.875Z,101692.59
2022-10-17T23:08:34.047Z,101695.25
2022-10-17T23:11:01.200Z,101687.59
2022-10-17T23:13:28.413Z,101685.66
2022-10-17T23:15:56.609Z,101687.34
2022-10-17T23:18:25.066Z,101690.88
2022-10-17T23:20:52.573Z,101694.38
2022-10-17T23:23:19.839Z,101691.50
2022-10-17T23:25:47.561Z,101687.88
2022-10-17T23:28:14.729Z,101688.63
2022-10-17T23:30:41.983Z,101697.34
2022-10-17T23:33:10.734Z,101695.66
2022-10-17T23:35:37.902Z,101701.69
2022-10-17T23:38:05.038Z,101696.28
2022-10-17T23:40:32.201Z,101692.78
2022-10-17T23:42:59.456Z,101692.66
2022-10-17T23:45:26.759Z,101695.19
2022-10-17T23:47:53.851Z,101696.38
2022-10-17T23:50:20.973Z,101693.84
2022-10-17T23:52:48.146Z,101697.47
2022-10-17T23:55:15.254Z,101686.59
2022-10-17T23:57:42.377Z,101694.47
